sensor_id;sensor_type;location;lat;lon;timestamp;temperature;humidity
37806;DHT22;25082;50.870;0.022;2022-09-09T00:04:14;20.60;77.40
37806;DHT22;25082;50.870;0.022;2022-09-09T00:09:16;20.70;77.40
37806;DHT22;25082;50.870;0.022;2022-09-09T00:11:49;20.70;77.50
37806;DHT22;25082;50.870;0.022;2022-09-09T00:25:34;20.70;77.40
37806;DHT22;25082;50.870;0.022;2022-09-09T00:28:27;20.70;77.40
37806;DHT22;25082;50.870;0.022;2022-09-09T00:30:56;20.70;77.40
37806;DHT22;25082;50.870;0.022;2022-09-09T00:33:27;20.60;77.30
37806;DHT22;25082;50.870;0.022;2022-09-09T00:36:00;20.70;77.30
37806;DHT22;25082;50.870;0.022;2022-09-09T00:38:34;20.70;77.40
37806;DHT22;25082;50.870;0.022;2022-09-09T00:43:40;20.70;77.30
37806;DHT22;25082;50.870;0.022;2022-09-09T00:49:39;20.70;77.40
37806;DHT22;25082;50.870;0.022;2022-09-09T00:52:29;20.70;77.30
37806;DHT22;25082;50.870;0.022;2022-09-09T00:55:09;20.70;77.40
37806;DHT22;25082;50.870;0.022;2022-09-09T00:57:38;20.70;77.20
37806;DHT22;25082;50.870;0.022;2022-09-09T01:00:25;20.70;77.30
37806;DHT22;25082;50.870;0.022;2022-09-09T01:14:19;20.60;77.20
37806;DHT22;25082;50.870;0.022;2022-09-09T01:16:56;20.70;77.30
37806;DHT22;25082;50.870;0.022;2022-09-09T01:19:49;20.70;77.30
37806;DHT22;25082;50.870;0.022;2022-09-09T01:28:30;20.70;77.30
37806;DHT22;25082;50.870;0.022;2022-09-09T01:30:59;20.60;77.20
37806;DHT22;25082;50.870;0.022;2022-09-09T01:33:26;20.60;77.20
37806;DHT22;25082;50.870;0.022;2022-09-09T01:35:59;20.60;77.10
37806;DHT22;25082;50.870;0.022;2022-09-09T01:38:30;20.60;77.20
37806;DHT22;25082;50.870;0.022;2022-09-09T01:40:57;20.60;77.20
37806;DHT22;25082;50.870;0.022;2022-09-09T01:43:25;20.60;77.20
37806;DHT22;25082;50.870;0.022;2022-09-09T01:45:56;20.60;77.10
37806;DHT22;25082;50.870;0.022;2022-09-09T01:48:24;20.70;77.20
37806;DHT22;25082;50.870;0.022;2022-09-09T01:50:51;20.60;77.10
37806;DHT22;25082;50.870;0.022;2022-09-09T01:53:19;20.60;77.10
37806;DHT22;25082;50.870;0.022;2022-09-09T01:59:14;20.60;77.10
37806;DHT22;25082;50.870;0.022;2022-09-09T02:01:34;20.60;77.10
37806;DHT22;25082;50.870;0.022;2022-09-09T02:04:49;20.60;77.10
37806;DHT22;25082;50.870;0.022;2022-09-09T02:06:57;20.60;77.20
37806;DHT22;25082;50.870;0.022;2022-09-09T02:09:25;20.60;77.10
37806;DHT22;25082;50.870;0.022;2022-09-09T02:11:58;20.60;77.10
37806;DHT22;25082;50.870;0.022;2022-09-09T02:14:35;20.60;77.10
37806;DHT22;25082;50.870;0.022;2022-09-09T02:17:08;20.60;77.20
37806;DHT22;25082;50.870;0.022;2022-09-09T02:19:52;20.60;77.10
37806;DHT22;25082;50.870;0.022;2022-09-09T02:22:22;20.60;77.10
37806;DHT22;25082;50.870;0.022;2022-09-09T02:24:52;20.60;77.10
37806;DHT22;25082;50.870;0.022;2022-09-09T02:27:21;20.60;77.10
37806;DHT22;25082;50.870;0.022;2022-09-09T02:29:50;20.60;77.10
37806;DHT22;25082;50.870;0.022;2022-09-09T02:32:23;20.60;77.10
37806;DHT22;25082;50.870;0.022;2022-09-09T02:35:12;20.60;77.10
37806;DHT22;25082;50.870;0.022;2022-09-09T02:37:41;20.60;77.10
37806;DHT22;25082;50.870;0.022;2022-09-09T02:40:10;20.60;77.00
37806;DHT22;25082;50.870;0.022;2022-09-09T02:42:45;20.60;77.00
37806;DHT22;25082;50.870;0.022;2022-09-09T02:45:14;20.60;77.10
37806;DHT22;25082;50.870;0.022;2022-09-09T02:48:26;20.60;77.10
37806;DHT22;25082;50.870;0.022;2022-09-09T02:51:37;20.60;77.00
37806;DHT22;25082;50.870;0.022;2022-09-09T02:56:53;20.60;77.00
37806;DHT22;25082;50.870;0.022;2022-09-09T02:59:25;20.60;77.00
37806;DHT22;25082;50.870;0.022;2022-09-09T03:01:52;20.60;77.50
37806;DHT22;25082;50.870;0.022;2022-09-09T03:04:19;20.60;77.00
37806;DHT22;25082;50.870;0.022;2022-09-09T03:06:46;20.60;77.00
37806;DHT22;25082;50.870;0.022;2022-09-09T03:09:12;20.60;77.00
37806;DHT22;25082;50.870;0.022;2022-09-09T03:11:39;20.60;77.00
37806;DHT22;25082;50.870;0.022;2022-09-09T03:14:05;20.60;77.00
37806;DHT22;25082;50.870;0.022;2022-09-09T03:16:32;20.60;77.00
37806;DHT22;25082;50.870;0.022;2022-09-09T03:19:00;20.60;77.00
37806;DHT22;25082;50.870;0.022;2022-09-09T03:21:27;20.60;77.00
37806;DHT22;25082;50.870;0.022;2022-09-09T03:23:53;20.60;77.00
37806;DHT22;25082;50.870;0.022;2022-09-09T03:26:19;20.50;76.90
37806;DHT22;25082;50.870;0.022;2022-09-09T03:28:46;20.60;76.90
37806;DHT22;25082;50.870;0.022;2022-09-09T03:31:13;20.50;76.90
37806;DHT22;25082;50.870;0.022;2022-09-09T03:33:40;20.60;76.90
37806;DHT22;25082;50.870;0.022;2022-09-09T03:36:09;20.50;76.90
37806;DHT22;25082;50.870;0.022;2022-09-09T03:38:36;20.50;76.90
37806;DHT22;25082;50.870;0.022;2022-09-09T03:41:03;20.50;76.90
37806;DHT22;25082;50.870;0.022;2022-09-09T03:43:34;20.60;76.90
37806;DHT22;25082;50.870;0.022;2022-09-09T03:46:00;20.50;76.80
37806;DHT22;25082;50.870;0.022;2022-09-09T03:48:27;20.50;76.80
37806;DHT22;25082;50.870;0.022;2022-09-09T03:50:55;20.50;76.80
37806;DHT22;25082;50.870;0.022;2022-09-09T03:53:27;20.50;76.80
37806;DHT22;25082;50.870;0.022;2022-09-09T03:55:55;20.50;76.90
37806;DHT22;25082;50.870;0.022;2022-09-09T03:58:22;20.50;76.90
37806;DHT22;25082;50.870;0.022;2022-09-09T04:00:57;20.50;76.90
37806;DHT22;25082;50.870;0.022;2022-09-09T04:03:25;20.50;76.80
37806;DHT22;25082;50.870;0.022;2022-09-09T04:05:52;20.50;76.80
37806;DHT22;25082;50.870;0.022;2022-09-09T04:08:22;20.50;76.80
37806;DHT22;25082;50.870;0.022;2022-09-09T04:10:51;20.60;76.90
37806;DHT22;25082;50.870;0.022;2022-09-09T04:13:18;20.50;76.80
37806;DHT22;25082;50.870;0.022;2022-09-09T04:15:54;20.50;76.80
37806;DHT22;25082;50.870;0.022;2022-09-09T04:18:21;20.50;76.80
37806;DHT22;25082;50.870;0.022;2022-09-09T04:20:51;20.50;76.80
37806;DHT22;25082;50.870;0.022;2022-09-09T04:23:19;20.50;76.80
37806;DHT22;25082;50.870;0.022;2022-09-09T04:25:51;20.50;76.80
37806;DHT22;25082;50.870;0.022;2022-09-09T04:28:19;20.50;76.80
37806;DHT22;25082;50.870;0.022;2022-09-09T04:30:46;20.50;76.80
37806;DHT22;25082;50.870;0.022;2022-09-09T04:33:13;20.50;76.80
37806;DHT22;25082;50.870;0.022;2022-09-09T04:35:48;20.50;76.80
37806;DHT22;25082;50.870;0.022;2022-09-09T04:38:16;20.50;76.80
37806;DHT22;25082;50.870;0.022;2022-09-09T04:40:45;20.50;76.80
37806;DHT22;25082;50.870;0.022;2022-09-09T04:43:12;20.50;76.80
37806;DHT22;25082;50.870;0.022;2022-09-09T04:45:41;20.50;76.80
37806;DHT22;25082;50.870;0.022;2022-09-09T04:48:08;20.50;76.80
37806;DHT22;25082;50.870;0.022;2022-09-09T04:50:36;20.50;76.80
37806;DHT22;25082;50.870;0.022;2022-09-09T04:53:04;20.50;76.80
37806;DHT22;25082;50.870;0.022;2022-09-09T04:55:31;20.50;76.80
37806;DHT22;25082;50.870;0.022;2022-09-09T04:57:58;20.50;76.80
37806;DHT22;25082;50.870;0.022;2022-09-09T05:00:29;20.50;76.80
37806;DHT22;25082;50.870;0.022;2022-09-09T05:02:55;20.50;76.80
37806;DHT22;25082;50.870;0.022;2022-09-09T05:05:21;20.40;76.70
37806;DHT22;25082;50.870;0.022;2022-09-09T05:07:48;20.50;76.80
37806;DHT22;25082;50.870;0.022;2022-09-09T05:10:15;20.50;76.80
37806;DHT22;25082;50.870;0.022;2022-09-09T05:12:52;20.50;76.70
37806;DHT22;25082;50.870;0.022;2022-09-09T05:15:19;20.50;76.80
37806;DHT22;25082;50.870;0.022;2022-09-09T05:17:46;20.50;76.80
37806;DHT22;25082;50.870;0.022;2022-09-09T05:20:13;20.50;76.80
37806;DHT22;25082;50.870;0.022;2022-09-09T05:22:39;20.50;76.70
37806;DHT22;25082;50.870;0.022;2022-09-09T05:25:06;20.50;76.80
37806;DHT22;25082;50.870;0.022;2022-09-09T05:27:36;20.50;76.80
37806;DHT22;25082;50.870;0.022;2022-09-09T05:30:03;20.50;76.70
37806;DHT22;25082;50.870;0.022;2022-09-09T05:32:30;20.50;76.80
37806;DHT22;25082;50.870;0.022;2022-09-09T05:34:59;20.50;76.80
37806;DHT22;25082;50.870;0.022;2022-09-09T05:37:25;20.40;76.70
37806;DHT22;25082;50.870;0.022;2022-09-09T05:39:52;20.40;76.70
37806;DHT22;25082;50.870;0.022;2022-09-09T05:42:19;20.40;77.30
37806;DHT22;25082;50.870;0.022;2022-09-09T05:44:45;20.50;76.70
37806;DHT22;25082;50.870;0.022;2022-09-09T05:47:11;20.50;76.80
37806;DHT22;25082;50.870;0.022;2022-09-09T05:49:37;20.40;76.70
37806;DHT22;25082;50.870;0.022;2022-09-09T05:52:04;20.40;76.80
37806;DHT22;25082;50.870;0.022;2022-09-09T05:54:31;20.40;76.70
37806;DHT22;25082;50.870;0.022;2022-09-09T05:56:58;20.40;76.70
37806;DHT22;25082;50.870;0.022;2022-09-09T05:59:25;20.50;76.70
37806;DHT22;25082;50.870;0.022;2022-09-09T06:01:51;20.40;76.70
37806;DHT22;25082;50.870;0.022;2022-09-09T06:04:18;20.40;76.70
37806;DHT22;25082;50.870;0.022;2022-09-09T06:06:48;20.40;76.70
37806;DHT22;25082;50.870;0.022;2022-09-09T06:09:14;20.40;76.70
37806;DHT22;25082;50.870;0.022;2022-09-09T06:11:42;20.40;76.70
37806;DHT22;25082;50.870;0.022;2022-09-09T06:14:09;20.40;76.70
37806;DHT22;25082;50.870;0.022;2022-09-09T06:16:36;20.40;76.70
37806;DHT22;25082;50.870;0.022;2022-09-09T06:19:04;20.40;76.70
37806;DHT22;25082;50.870;0.022;2022-09-09T06:21:35;20.40;76.80
37806;DHT22;25082;50.870;0.022;2022-09-09T06:24:05;20.40;76.80
37806;DHT22;25082;50.870;0.022;2022-09-09T06:26:35;20.40;76.80
37806;DHT22;25082;50.870;0.022;2022-09-09T06:29:03;20.40;76.80
37806;DHT22;25082;50.870;0.022;2022-09-09T06:31:31;20.40;76.70
37806;DHT22;25082;50.870;0.022;2022-09-09T06:34:00;20.40;76.70
37806;DHT22;25082;50.870;0.022;2022-09-09T06:36:32;20.40;76.80
37806;DHT22;25082;50.870;0.022;2022-09-09T06:38:58;20.50;76.80
37806;DHT22;25082;50.870;0.022;2022-09-09T06:41:27;20.40;76.80
37806;DHT22;25082;50.870;0.022;2022-09-09T06:43:53;20.40;76.80
37806;DHT22;25082;50.870;0.022;2022-09-09T06:46:28;20.40;76.80
37806;DHT22;25082;50.870;0.022;2022-09-09T06:48:55;20.40;76.80
37806;DHT22;25082;50.870;0.022;2022-09-09T06:51:27;20.40;76.80
37806;DHT22;25082;50.870;0.022;2022-09-09T06:53:55;20.40;76.80
37806;DHT22;25082;50.870;0.022;2022-09-09T06:56:24;20.40;76.80
37806;DHT22;25082;50.870;0.022;2022-09-09T06:58:52;20.40;76.80
37806;DHT22;25082;50.870;0.022;2022-09-09T07:01:22;20.40;76.80
37806;DHT22;25082;50.870;0.022;2022-09-09T07:03:51;20.40;76.80
37806;DHT22;25082;50.870;0.022;2022-09-09T07:06:20;20.40;76.80
37806;DHT22;25082;50.870;0.022;2022-09-09T07:08:51;20.40;76.80
37806;DHT22;25082;50.870;0.022;2022-09-09T07:11:19;20.40;76.80
37806;DHT22;25082;50.870;0.022;2022-09-09T07:13:46;20.40;76.90
37806;DHT22;25082;50.870;0.022;2022-09-09T07:16:16;20.40;76.90
37806;DHT22;25082;50.870;0.022;2022-09-09T07:18:43;20.40;76.90
37806;DHT22;25082;50.870;0.022;2022-09-09T07:21:12;20.50;76.90
37806;DHT22;25082;50.870;0.022;2022-09-09T07:23:40;20.40;76.90
37806;DHT22;25082;50.870;0.022;2022-09-09T07:26:11;20.40;76.90
37806;DHT22;25082;50.870;0.022;2022-09-09T07:28:38;20.40;76.90
37806;DHT22;25082;50.870;0.022;2022-09-09T07:31:06;20.40;76.90
37806;DHT22;25082;50.870;0.022;2022-09-09T07:33:34;20.40;76.90
37806;DHT22;25082;50.870;0.022;2022-09-09T07:36:25;20.40;76.90
37806;DHT22;25082;50.870;0.022;2022-09-09T07:38:54;20.40;76.90
37806;DHT22;25082;50.870;0.022;2022-09-09T07:41:30;20.40;76.90
37806;DHT22;25082;50.870;0.022;2022-09-09T07:43:58;20.40;76.90
37806;DHT22;25082;50.870;0.022;2022-09-09T07:46:25;20.40;76.90
37806;DHT22;25082;50.870;0.022;2022-09-09T07:48:56;20.40;77.00
37806;DHT22;25082;50.870;0.022;2022-09-09T07:51:34;20.40;77.00
37806;DHT22;25082;50.870;0.022;2022-09-09T07:54:03;20.40;76.90
37806;DHT22;25082;50.870;0.022;2022-09-09T07:56:30;20.40;77.00
37806;DHT22;25082;50.870;0.022;2022-09-09T07:58:57;20.40;77.10
37806;DHT22;25082;50.870;0.022;2022-09-09T08:01:35;20.50;77.10
37806;DHT22;25082;50.870;0.022;2022-09-09T08:04:07;20.50;77.10
37806;DHT22;25082;50.870;0.022;2022-09-09T08:06:39;20.50;77.10
37806;DHT22;25082;50.870;0.022;2022-09-09T08:09:07;20.50;77.10
37806;DHT22;25082;50.870;0.022;2022-09-09T08:11:35;20.50;77.10
37806;DHT22;25082;50.870;0.022;2022-09-09T08:14:03;20.50;77.10
37806;DHT22;25082;50.870;0.022;2022-09-09T08:16:32;20.50;77.60
37806;DHT22;25082;50.870;0.022;2022-09-09T08:18:58;20.50;77.00
37806;DHT22;25082;50.870;0.022;2022-09-09T08:21:30;20.50;77.60
37806;DHT22;25082;50.870;0.022;2022-09-09T08:23:59;20.50;77.00
37806;DHT22;25082;50.870;0.022;2022-09-09T08:26:30;20.50;77.00
37806;DHT22;25082;50.870;0.022;2022-09-09T08:28:58;20.50;76.10
37806;DHT22;25082;50.870;0.022;2022-09-09T08:31:31;20.50;76.10
37806;DHT22;25082;50.870;0.022;2022-09-09T08:33:58;20.50;75.90
37806;DHT22;25082;50.870;0.022;2022-09-09T08:36:40;20.50;76.00
37806;DHT22;25082;50.870;0.022;2022-09-09T08:39:09;20.40;75.60
37806;DHT22;25082;50.870;0.022;2022-09-09T08:50:02;20.40;75.60
37806;DHT22;25082;50.870;0.022;2022-09-09T08:55:24;20.30;75.30
37806;DHT22;25082;50.870;0.022;2022-09-09T08:57:53;20.30;75.20
37806;DHT22;25082;50.870;0.022;2022-09-09T09:00:20;20.30;75.20
37806;DHT22;25082;50.870;0.022;2022-09-09T09:07:53;20.30;75.90
37806;DHT22;25082;50.870;0.022;2022-09-09T09:13:45;20.30;76.20
37806;DHT22;25082;50.870;0.022;2022-09-09T09:18:58;20.30;76.30
37806;DHT22;25082;50.870;0.022;2022-09-09T09:24:22;20.40;76.40
37806;DHT22;25082;50.870;0.022;2022-09-09T09:26:49;20.40;76.40
37806;DHT22;25082;50.870;0.022;2022-09-09T09:29:19;20.40;76.50
37806;DHT22;25082;50.870;0.022;2022-09-09T09:31:59;20.40;76.50
37806;DHT22;25082;50.870;0.022;2022-09-09T09:34:27;20.40;76.50
37806;DHT22;25082;50.870;0.022;2022-09-09T09:36:58;20.40;76.60
37806;DHT22;25082;50.870;0.022;2022-09-09T09:39:31;20.40;77.10
37806;DHT22;25082;50.870;0.022;2022-09-09T09:42:12;20.40;76.60
37806;DHT22;25082;50.870;0.022;2022-09-09T09:44:40;20.40;76.60
37806;DHT22;25082;50.870;0.022;2022-09-09T09:47:11;20.40;76.60
37806;DHT22;25082;50.870;0.022;2022-09-09T09:49:39;20.40;76.60
37806;DHT22;25082;50.870;0.022;2022-09-09T09:52:06;20.40;76.70
37806;DHT22;25082;50.870;0.022;2022-09-09T09:54:37;20.40;76.70
37806;DHT22;25082;50.870;0.022;2022-09-09T09:57:14;20.40;76.70
37806;DHT22;25082;50.870;0.022;2022-09-09T09:59:41;20.40;76.70
37806;DHT22;25082;50.870;0.022;2022-09-09T10:02:22;20.40;76.70
37806;DHT22;25082;50.870;0.022;2022-09-09T10:07:27;20.40;76.70
37806;DHT22;25082;50.870;0.022;2022-09-09T10:09:55;20.40;76.80
37806;DHT22;25082;50.870;0.022;2022-09-09T10:12:47;20.40;76.80
37806;DHT22;25082;50.870;0.022;2022-09-09T10:18:11;20.40;76.80
37806;DHT22;25082;50.870;0.022;2022-09-09T10:20:45;20.40;76.70
37806;DHT22;25082;50.870;0.022;2022-09-09T10:23:41;20.50;76.80
37806;DHT22;25082;50.870;0.022;2022-09-09T10:26:32;20.40;76.70
37806;DHT22;25082;50.870;0.022;2022-09-09T10:29:22;20.50;76.70
37806;DHT22;25082;50.870;0.022;2022-09-09T10:35:08;20.50;76.60
37806;DHT22;25082;50.870;0.022;2022-09-09T10:42:38;20.50;76.50
37806;DHT22;25082;50.870;0.022;2022-09-09T10:45:33;20.50;76.50
37806;DHT22;25082;50.870;0.022;2022-09-09T10:48:10;20.50;76.50
37806;DHT22;25082;50.870;0.022;2022-09-09T10:51:04;20.50;76.50
37806;DHT22;25082;50.870;0.022;2022-09-09T10:53:48;20.50;76.50
37806;DHT22;25082;50.870;0.022;2022-09-09T10:56:18;20.50;76.50
37806;DHT22;25082;50.870;0.022;2022-09-09T10:58:53;20.50;76.50
37806;DHT22;25082;50.870;0.022;2022-09-09T11:01:25;20.50;76.50
37806;DHT22;25082;50.870;0.022;2022-09-09T11:04:02;20.50;76.50
37806;DHT22;25082;50.870;0.022;2022-09-09T11:06:36;20.50;76.50
37806;DHT22;25082;50.870;0.022;2022-09-09T11:09:04;20.50;76.50
37806;DHT22;25082;50.870;0.022;2022-09-09T11:11:44;20.50;76.50
37806;DHT22;25082;50.870;0.022;2022-09-09T11:17:03;20.50;76.50
37806;DHT22;25082;50.870;0.022;2022-09-09T11:19:41;20.60;76.40
37806;DHT22;25082;50.870;0.022;2022-09-09T11:27:36;20.60;76.40
37806;DHT22;25082;50.870;0.022;2022-09-09T11:30:18;20.60;76.40
37806;DHT22;25082;50.870;0.022;2022-09-09T11:32:58;20.60;76.40
37806;DHT22;25082;50.870;0.022;2022-09-09T11:40:41;20.60;76.40
37806;DHT22;25082;50.870;0.022;2022-09-09T11:45:39;20.50;76.40
37806;DHT22;25082;50.870;0.022;2022-09-09T11:48:26;20.50;76.50
37806;DHT22;25082;50.870;0.022;2022-09-09T11:51:02;20.50;76.50
37806;DHT22;25082;50.870;0.022;2022-09-09T11:53:30;20.60;76.50
37806;DHT22;25082;50.870;0.022;2022-09-09T11:56:12;20.60;76.50
37806;DHT22;25082;50.870;0.022;2022-09-09T11:58:53;20.60;76.50
37806;DHT22;25082;50.870;0.022;2022-09-09T12:04:10;20.60;76.50
37806;DHT22;25082;50.870;0.022;2022-09-09T12:07:02;20.60;76.40
37806;DHT22;25082;50.870;0.022;2022-09-09T12:17:26;20.60;76.50
37806;DHT22;25082;50.870;0.022;2022-09-09T12:20:11;20.60;76.50
37806;DHT22;25082;50.870;0.022;2022-09-09T12:33:25;20.60;76.60
37806;DHT22;25082;50.870;0.022;2022-09-09T12:35:58;20.60;76.60
37806;DHT22;25082;50.870;0.022;2022-09-09T12:38:35;20.60;76.60
37806;DHT22;25082;50.870;0.022;2022-09-09T12:41:01;20.60;76.60
37806;DHT22;25082;50.870;0.022;2022-09-09T12:43:28;20.60;76.60
37806;DHT22;25082;50.870;0.022;2022-09-09T12:46:03;20.60;76.60
37806;DHT22;25082;50.870;0.022;2022-09-09T12:48:38;20.60;76.60
37806;DHT22;25082;50.870;0.022;2022-09-09T12:53:51;20.60;76.80
37806;DHT22;25082;50.870;0.022;2022-09-09T12:56:22;20.60;76.70
37806;DHT22;25082;50.870;0.022;2022-09-09T12:58:50;20.60;76.70
37806;DHT22;25082;50.870;0.022;2022-09-09T13:01:27;20.60;76.70
37806;DHT22;25082;50.870;0.022;2022-09-09T13:03:54;20.60;76.80
37806;DHT22;25082;50.870;0.022;2022-09-09T13:06:28;20.60;76.80
37806;DHT22;25082;50.870;0.022;2022-09-09T13:08:57;20.60;76.80
37806;DHT22;25082;50.870;0.022;2022-09-09T13:11:48;20.50;76.80
37806;DHT22;25082;50.870;0.022;2022-09-09T13:14:31;20.50;76.80
37806;DHT22;25082;50.870;0.022;2022-09-09T13:17:01;20.50;76.70
37806;DHT22;25082;50.870;0.022;2022-09-09T13:19:38;20.60;76.80
37806;DHT22;25082;50.870;0.022;2022-09-09T13:22:31;20.50;76.70
37806;DHT22;25082;50.870;0.022;2022-09-09T13:27:37;20.50;76.80
37806;DHT22;25082;50.870;0.022;2022-09-09T13:36:09;20.60;76.80
37806;DHT22;25082;50.870;0.022;2022-09-09T13:38:54;20.60;76.80
37806;DHT22;25082;50.870;0.022;2022-09-09T13:41:44;20.60;76.80
37806;DHT22;25082;50.870;0.022;2022-09-09T13:44:25;20.50;76.70
37806;DHT22;25082;50.870;0.022;2022-09-09T13:49:39;20.60;76.70
37806;DHT22;25082;50.870;0.022;2022-09-09T13:52:09;20.60;76.70
37806;DHT22;25082;50.870;0.022;2022-09-09T13:54:35;20.60;76.60
37806;DHT22;25082;50.870;0.022;2022-09-09T13:57:01;20.60;76.70
37806;DHT22;25082;50.870;0.022;2022-09-09T13:59:27;20.60;76.60
37806;DHT22;25082;50.870;0.022;2022-09-09T14:01:53;20.60;76.70
37806;DHT22;25082;50.870;0.022;2022-09-09T14:04:19;20.60;76.60
37806;DHT22;25082;50.870;0.022;2022-09-09T14:06:48;20.60;76.70
37806;DHT22;25082;50.870;0.022;2022-09-09T14:09:16;20.60;76.80
37806;DHT22;25082;50.870;0.022;2022-09-09T14:11:43;20.60;76.70
37806;DHT22;25082;50.870;0.022;2022-09-09T14:14:11;20.60;76.60
37806;DHT22;25082;50.870;0.022;2022-09-09T14:16:36;20.60;76.80
37806;DHT22;25082;50.870;0.022;2022-09-09T14:19:03;20.60;76.80
37806;DHT22;25082;50.870;0.022;2022-09-09T14:21:29;20.60;76.70
37806;DHT22;25082;50.870;0.022;2022-09-09T14:23:55;20.60;76.80
37806;DHT22;25082;50.870;0.022;2022-09-09T14:26:23;20.60;76.80
37806;DHT22;25082;50.870;0.022;2022-09-09T14:28:49;20.60;76.80
37806;DHT22;25082;50.870;0.022;2022-09-09T14:31:15;20.60;76.80
37806;DHT22;25082;50.870;0.022;2022-09-09T14:33:43;20.60;76.80
37806;DHT22;25082;50.870;0.022;2022-09-09T14:36:09;20.60;76.80
37806;DHT22;25082;50.870;0.022;2022-09-09T14:38:37;20.60;76.80
37806;DHT22;25082;50.870;0.022;2022-09-09T14:41:10;20.60;76.80
37806;DHT22;25082;50.870;0.022;2022-09-09T14:43:38;20.60;76.80
37806;DHT22;25082;50.870;0.022;2022-09-09T14:46:10;20.60;76.80
37806;DHT22;25082;50.870;0.022;2022-09-09T14:48:37;20.60;76.80
37806;DHT22;25082;50.870;0.022;2022-09-09T14:51:17;20.60;76.80
37806;DHT22;25082;50.870;0.022;2022-09-09T14:53:44;20.60;76.80
37806;DHT22;25082;50.870;0.022;2022-09-09T14:56:15;20.60;76.80
37806;DHT22;25082;50.870;0.022;2022-09-09T14:58:42;20.60;76.70
37806;DHT22;25082;50.870;0.022;2022-09-09T15:01:10;20.60;76.70
37806;DHT22;25082;50.870;0.022;2022-09-09T15:03:37;20.60;76.70
37806;DHT22;25082;50.870;0.022;2022-09-09T15:06:11;20.60;76.80
37806;DHT22;25082;50.870;0.022;2022-09-09T15:08:38;20.60;76.80
37806;DHT22;25082;50.870;0.022;2022-09-09T15:11:05;20.60;76.90
37806;DHT22;25082;50.870;0.022;2022-09-09T15:13:36;20.70;76.90
37806;DHT22;25082;50.870;0.022;2022-09-09T15:16:16;20.70;76.90
37806;DHT22;25082;50.870;0.022;2022-09-09T15:18:43;20.70;76.80
37806;DHT22;25082;50.870;0.022;2022-09-09T15:21:17;20.70;76.80
37806;DHT22;25082;50.870;0.022;2022-09-09T15:23:45;20.70;76.90
37806;DHT22;25082;50.870;0.022;2022-09-09T15:26:11;20.70;76.90
37806;DHT22;25082;50.870;0.022;2022-09-09T15:28:40;20.70;76.90
37806;DHT22;25082;50.870;0.022;2022-09-09T15:33:49;20.80;76.90
37806;DHT22;25082;50.870;0.022;2022-09-09T15:38:43;20.70;76.90
37806;DHT22;25082;50.870;0.022;2022-09-09T15:41:10;20.70;77.00
37806;DHT22;25082;50.870;0.022;2022-09-09T15:43:36;20.70;77.00
37806;DHT22;25082;50.870;0.022;2022-09-09T15:48:46;20.70;77.10
37806;DHT22;25082;50.870;0.022;2022-09-09T15:51:11;20.70;77.10
37806;DHT22;25082;50.870;0.022;2022-09-09T15:53:37;20.70;77.10
37806;DHT22;25082;50.870;0.022;2022-09-09T15:56:07;20.70;77.20
37806;DHT22;25082;50.870;0.022;2022-09-09T15:58:34;20.70;77.20
37806;DHT22;25082;50.870;0.022;2022-09-09T16:01:05;20.70;77.20
37806;DHT22;25082;50.870;0.022;2022-09-09T16:03:41;20.70;77.20
37806;DHT22;25082;50.870;0.022;2022-09-09T16:06:08;20.70;77.20
37806;DHT22;25082;50.870;0.022;2022-09-09T16:08:40;20.70;77.20
37806;DHT22;25082;50.870;0.022;2022-09-09T16:11:10;20.70;77.20
37806;DHT22;25082;50.870;0.022;2022-09-09T16:13:38;20.70;77.20
37806;DHT22;25082;50.870;0.022;2022-09-09T16:16:05;20.70;77.10
37806;DHT22;25082;50.870;0.022;2022-09-09T16:18:43;20.70;77.20
37806;DHT22;25082;50.870;0.022;2022-09-09T16:21:18;20.70;77.10
37806;DHT22;25082;50.870;0.022;2022-09-09T16:23:44;20.60;77.00
37806;DHT22;25082;50.870;0.022;2022-09-09T16:26:12;20.70;77.10
37806;DHT22;25082;50.870;0.022;2022-09-09T16:28:38;20.70;77.10
37806;DHT22;25082;50.870;0.022;2022-09-09T16:31:09;20.70;77.10
37806;DHT22;25082;50.870;0.022;2022-09-09T16:33:36;20.70;77.10
37806;DHT22;25082;50.870;0.022;2022-09-09T16:36:10;20.70;77.10
37806;DHT22;25082;50.870;0.022;2022-09-09T16:38:36;20.70;77.10
37806;DHT22;25082;50.870;0.022;2022-09-09T16:41:04;20.60;77.00
37806;DHT22;25082;50.870;0.022;2022-09-09T16:43:34;20.70;77.10
37806;DHT22;25082;50.870;0.022;2022-09-09T16:46:15;20.60;77.00
37806;DHT22;25082;50.870;0.022;2022-09-09T16:48:42;20.70;77.00
37806;DHT22;25082;50.870;0.022;2022-09-09T16:51:13;20.70;76.90
37806;DHT22;25082;50.870;0.022;2022-09-09T16:53:40;20.60;76.90
37806;DHT22;25082;50.870;0.022;2022-09-09T16:56:09;20.70;76.90
37806;DHT22;25082;50.870;0.022;2022-09-09T16:58:35;20.60;76.80
37806;DHT22;25082;50.870;0.022;2022-09-09T17:01:02;20.70;76.90
37806;DHT22;25082;50.870;0.022;2022-09-09T17:03:29;20.70;76.90
37806;DHT22;25082;50.870;0.022;2022-09-09T17:05:54;20.70;76.90
37806;DHT22;25082;50.870;0.022;2022-09-09T17:08:20;20.70;76.80
37806;DHT22;25082;50.870;0.022;2022-09-09T17:10:46;20.70;76.80
37806;DHT22;25082;50.870;0.022;2022-09-09T17:13:13;20.60;76.80
37806;DHT22;25082;50.870;0.022;2022-09-09T17:15:42;20.70;76.90
37806;DHT22;25082;50.870;0.022;2022-09-09T17:18:12;20.70;76.90
37806;DHT22;25082;50.870;0.022;2022-09-09T17:20:39;20.70;76.90
37806;DHT22;25082;50.870;0.022;2022-09-09T17:23:09;20.60;76.80
37806;DHT22;25082;50.870;0.022;2022-09-09T17:25:36;20.70;76.90
37806;DHT22;25082;50.870;0.022;2022-09-09T17:28:02;20.70;76.90
37806;DHT22;25082;50.870;0.022;2022-09-09T17:30:35;20.70;76.90
37806;DHT22;25082;50.870;0.022;2022-09-09T17:33:05;20.70;76.90
37806;DHT22;25082;50.870;0.022;2022-09-09T17:35:32;20.60;76.90
37806;DHT22;25082;50.870;0.022;2022-09-09T17:37:58;20.60;76.80
37806;DHT22;25082;50.870;0.022;2022-09-09T17:40:24;20.70;76.90
37806;DHT22;25082;50.870;0.022;2022-09-09T17:42:49;20.70;77.00
37806;DHT22;25082;50.870;0.022;2022-09-09T17:45:15;20.60;76.90
37806;DHT22;25082;50.870;0.022;2022-09-09T17:47:41;20.60;77.00
37806;DHT22;25082;50.870;0.022;2022-09-09T17:50:09;20.70;77.00
37806;DHT22;25082;50.870;0.022;2022-09-09T17:52:38;20.60;76.90
37806;DHT22;25082;50.870;0.022;2022-09-09T17:55:05;20.60;76.90
37806;DHT22;25082;50.870;0.022;2022-09-09T17:57:31;20.60;77.00
37806;DHT22;25082;50.870;0.022;2022-09-09T17:59:56;20.60;77.00
37806;DHT22;25082;50.870;0.022;2022-09-09T18:02:22;20.60;77.50
37806;DHT22;25082;50.870;0.022;2022-09-09T18:04:48;20.60;77.00
37806;DHT22;25082;50.870;0.022;2022-09-09T18:07:14;20.60;77.00
37806;DHT22;25082;50.870;0.022;2022-09-09T18:09:39;20.60;77.00
37806;DHT22;25082;50.870;0.022;2022-09-09T18:12:06;20.60;77.00
37806;DHT22;25082;50.870;0.022;2022-09-09T18:14:32;20.60;77.00
37806;DHT22;25082;50.870;0.022;2022-09-09T18:16:59;20.60;77.00